Terminal Aerodrome Forecast
Issued by NWS

Home | Current Version | Previous Version | Text Only | Print | Product List | Glossary On
Versions: 1 2 3 4 5 6 7 8 9 10 11 12 13 14 15 16
000
FTUS46 KSEW 200324 AAA
TAFHQM
TAF AMD
KHQM 200324Z 2003/2024 28008KT P6SM SCT250
     FM200900 28008KT P6SM BKN010
     FM201100 29006KT 5SM BR OVC006
     FM201800 24009KT P6SM SCT008 BKN015
     FM202100 25013G20KT P6SM SCT250=

USA.gov is the U.S. government's official web portal to all federal, state and local government web resources and services.